createdAt,value
2017-08-27T00:01:02.634Z,3.83
2017-08-27T00:03:30.142Z,3.83
2017-08-27T00:05:57.618Z,3.67
2017-08-27T00:08:25.123Z,4.00
2017-08-27T00:10:52.630Z,4.10
2017-08-27T00:13:20.113Z,4.30
2017-08-27T00:15:47.594Z,5.13
2017-08-27T00:18:15.104Z,5.33
2017-08-27T00:20:42.595Z,3.63
2017-08-27T00:23:10.077Z,4.27
2017-08-27T00:25:37.582Z,3.80
2017-08-27T00:28:05.076Z,3.80
2017-08-27T00:30:32.551Z,3.30
2017-08-27T00:33:00.061Z,3.70
2017-08-27T00:35:27.555Z,4.10
2017-08-27T00:37:55.029Z,4.00
2017-08-27T00:40:22.532Z,4.17
2017-08-27T00:42:50.018Z,3.80
2017-08-27T00:45:17.502Z,3.90
2017-08-27T00:47:45.014Z,3.90
2017-08-27T00:50:12.498Z,4.10
2017-08-27T00:52:39.981Z,2.70
2017-08-27T00:55:07.492Z,4.03
2017-08-27T00:57:34.969Z,3.40
2017-08-27T01:00:02.463Z,3.57
2017-08-27T01:02:29.975Z,3.47
2017-08-27T01:04:57.478Z,3.17
2017-08-27T01:07:24.952Z,4.00
2017-08-27T01:09:52.457Z,3.20
2017-08-27T01:12:19.947Z,3.40
2017-08-27T01:14:47.430Z,3.47
2017-08-27T01:17:14.948Z,3.67
2017-08-27T01:19:42.431Z,3.93
2017-08-27T01:22:09.918Z,3.80
2017-08-27T01:24:37.418Z,3.60
2017-08-27T01:27:04.900Z,3.77
2017-08-27T01:29:32.390Z,4.13
2017-08-27T01:31:59.939Z,3.30
2017-08-27T01:34:27.448Z,4.77
2017-08-27T01:36:54.938Z,3.40
2017-08-27T01:39:22.456Z,3.10
2017-08-27T01:41:49.937Z,3.77
2017-08-27T01:44:17.435Z,3.53
2017-08-27T01:46:44.945Z,3.90
2017-08-27T01:49:12.431Z,3.53
2017-08-27T01:51:39.915Z,3.20
2017-08-27T01:54:07.437Z,4.13
2017-08-27T01:56:34.912Z,3.57
2017-08-27T01:59:02.785Z,3.53
2017-08-27T02:01:30.299Z,3.73
2017-08-27T02:03:57.798Z,3.97
2017-08-27T02:06:25.275Z,3.87
2017-08-27T02:08:52.769Z,3.37
2017-08-27T02:11:20.243Z,3.60
2017-08-27T02:13:47.753Z,4.17
2017-08-27T02:16:15.262Z,2.97
2017-08-27T02:18:42.751Z,3.50
2017-08-27T02:21:10.247Z,3.50
2017-08-27T02:23:37.751Z,3.53
2017-08-27T02:26:05.248Z,3.80
2017-08-27T02:28:32.725Z,3.30
2017-08-27T02:31:00.272Z,3.43
2017-08-27T02:33:27.750Z,3.70
2017-08-27T02:35:55.227Z,4.10
2017-08-27T02:38:22.745Z,3.40
2017-08-27T02:40:50.229Z,3.50
2017-08-27T02:43:17.719Z,4.00
2017-08-27T02:45:45.235Z,4.27
2017-08-27T02:48:12.724Z,3.37
2017-08-27T02:50:40.207Z,4.07
2017-08-27T02:53:07.718Z,3.00
2017-08-27T02:55:35.181Z,4.03
2017-08-27T02:58:02.659Z,5.13
2017-08-27T03:00:30.161Z,4.70
2017-08-27T03:02:57.651Z,4.90
2017-08-27T03:05:25.148Z,6.13
2017-08-27T03:07:52.657Z,5.40
2017-08-27T03:10:20.155Z,6.70
2017-08-27T03:12:47.653Z,6.17
2017-08-27T03:15:15.162Z,7.07
2017-08-27T03:17:42.653Z,5.60
2017-08-27T03:20:10.134Z,6.30
2017-08-27T03:22:37.644Z,5.60
2017-08-27T03:25:05.133Z,5.60
2017-08-27T03:27:32.644Z,6.10
2017-08-27T03:30:00.150Z,5.63
2017-08-27T03:32:27.654Z,5.60
2017-08-27T03:34:55.135Z,5.07
2017-08-27T03:37:22.644Z,4.83
2017-08-27T03:39:50.125Z,4.13
2017-08-27T03:42:17.910Z,4.30
2017-08-27T03:44:45.426Z,3.93
2017-08-27T03:47:12.918Z,5.27
2017-08-27T03:49:40.398Z,4.10
2017-08-27T03:52:07.929Z,4.20
2017-08-27T03:54:35.437Z,4.20
2017-08-27T03:57:02.924Z,4.17
2017-08-27T03:59:30.439Z,4.37
2017-08-27T04:01:57.926Z,4.70
2017-08-27T04:04:25.426Z,4.47
2017-08-27T04:06:52.931Z,4.70
2017-08-27T04:09:20.406Z,4.93
2017-08-27T04:11:47.892Z,5.83
2017-08-27T04:14:15.398Z,6.30
2017-08-27T04:16:42.872Z,7.10
2017-08-27T04:19:10.363Z,7.00
2017-08-27T04:21:37.879Z,5.30
2017-08-27T04:24:05.363Z,6.40
2017-08-27T04:26:32.842Z,7.40
2017-08-27T04:29:00.354Z,7.93
2017-08-27T04:31:27.830Z,6.97
2017-08-27T04:33:55.309Z,7.60
2017-08-27T04:36:22.809Z,7.57
2017-08-27T04:38:50.290Z,7.70
2017-08-27T04:41:17.790Z,9.20
2017-08-27T04:43:45.312Z,7.43
2017-08-27T04:46:12.785Z,7.37
2017-08-27T04:48:41.257Z,8.10
2017-08-27T04:51:08.768Z,7.53
2017-08-27T04:53:36.247Z,7.33
2017-08-27T04:56:03.740Z,7.47
2017-08-27T04:58:31.255Z,7.80
2017-08-27T05:00:58.729Z,6.57
2017-08-27T05:03:26.215Z,7.63
2017-08-27T05:05:53.744Z,7.00
2017-08-27T05:08:21.226Z,6.73
2017-08-27T05:10:48.701Z,6.50
2017-08-27T05:13:16.209Z,6.20
2017-08-27T05:15:44.570Z,5.63
2017-08-27T05:18:12.068Z,5.80
2017-08-27T05:20:39.583Z,5.20
2017-08-27T05:23:07.071Z,5.77
2017-08-27T05:25:34.567Z,5.03
2017-08-27T05:28:02.084Z,5.50
2017-08-27T05:30:29.569Z,4.73
2017-08-27T05:32:57.037Z,5.03
2017-08-27T05:35:24.538Z,4.80
2017-08-27T05:37:52.026Z,5.37
2017-08-27T05:40:19.514Z,5.00
2017-08-27T05:42:47.037Z,5.97
2017-08-27T05:45:14.515Z,5.80
2017-08-27T05:47:42.006Z,5.13
2017-08-27T05:50:09.519Z,5.20
2017-08-27T05:52:36.994Z,5.00
2017-08-27T05:55:04.485Z,5.27
2017-08-27T05:57:32.754Z,5.80
2017-08-27T06:00:00.230Z,5.47
2017-08-27T06:02:27.714Z,4.90
2017-08-27T06:04:55.223Z,4.60
2017-08-27T06:07:22.697Z,4.97
2017-08-27T06:09:50.193Z,4.67
2017-08-27T06:12:17.731Z,4.80
2017-08-27T06:14:45.214Z,4.90
2017-08-27T06:17:12.685Z,5.40
2017-08-27T06:19:40.191Z,4.80
2017-08-27T06:22:07.677Z,4.47
2017-08-27T06:24:35.255Z,5.03
2017-08-27T06:27:02.765Z,5.03
2017-08-27T06:29:30.247Z,5.93
2017-08-27T06:31:57.738Z,5.13
2017-08-27T06:34:25.247Z,5.93
2017-08-27T06:36:52.734Z,5.30
2017-08-27T06:39:20.227Z,5.03
2017-08-27T06:41:47.731Z,4.83
2017-08-27T06:44:15.214Z,6.00
2017-08-27T06:46:42.693Z,5.83
2017-08-27T06:49:10.208Z,5.10
2017-08-27T06:51:38.318Z,5.47
2017-08-27T06:54:05.804Z,7.30
2017-08-27T06:56:33.313Z,4.77
2017-08-27T06:59:00.791Z,5.77
2017-08-27T07:01:28.283Z,5.47
2017-08-27T07:03:55.801Z,5.30
2017-08-27T07:06:23.304Z,6.53
2017-08-27T07:08:50.790Z,7.33
2017-08-27T07:11:18.310Z,7.80
2017-08-27T07:13:45.802Z,9.40
2017-08-27T07:16:13.297Z,7.70
2017-08-27T07:18:40.815Z,9.03
2017-08-27T07:21:08.295Z,9.77
2017-08-27T07:23:35.774Z,9.10
2017-08-27T07:26:03.282Z,6.67
2017-08-27T07:28:30.764Z,7.47
2017-08-27T07:30:58.251Z,8.70
2017-08-27T07:33:25.770Z,8.67
2017-08-27T07:35:53.269Z,8.93
2017-08-27T07:38:20.769Z,8.77
2017-08-27T07:40:48.291Z,6.70
2017-08-27T07:43:15.774Z,7.43
2017-08-27T07:45:43.262Z,8.00
2017-08-27T07:48:10.776Z,7.83
2017-08-27T07:50:38.268Z,7.10
2017-08-27T07:53:05.755Z,6.93
2017-08-27T07:55:33.269Z,6.00
2017-08-27T07:58:00.753Z,6.60
2017-08-27T08:00:28.243Z,6.57
2017-08-27T08:02:55.754Z,7.50
2017-08-27T08:05:23.224Z,6.73
2017-08-27T08:07:50.706Z,7.47
2017-08-27T08:10:18.245Z,7.10
2017-08-27T08:12:45.729Z,7.80
2017-08-27T08:15:13.218Z,6.77
2017-08-27T08:17:40.735Z,7.90
2017-08-27T08:20:08.211Z,7.90
2017-08-27T08:22:35.686Z,7.30
2017-08-27T08:25:03.198Z,6.77
2017-08-27T08:27:30.690Z,7.27
2017-08-27T08:29:58.183Z,7.20
2017-08-27T08:32:25.703Z,7.53
2017-08-27T08:34:53.180Z,6.80
2017-08-27T08:37:20.662Z,6.53
2017-08-27T08:39:48.181Z,7.40
2017-08-27T08:42:15.670Z,7.33
2017-08-27T08:44:43.154Z,6.40
2017-08-27T08:47:10.655Z,6.87
2017-08-27T08:49:38.145Z,6.53
2017-08-27T08:52:05.632Z,6.17
2017-08-27T08:54:33.130Z,6.30
2017-08-27T08:57:00.633Z,7.17
2017-08-27T08:59:28.105Z,6.23
2017-08-27T09:01:55.659Z,6.43
2017-08-27T09:04:23.144Z,7.03
2017-08-27T09:06:50.634Z,6.00
2017-08-27T09:09:18.147Z,6.70
2017-08-27T09:11:45.637Z,5.97
2017-08-27T09:14:13.124Z,6.70
2017-08-27T09:16:40.643Z,5.47
2017-08-27T09:19:08.126Z,6.70
2017-08-27T09:21:35.613Z,8.43
2017-08-27T09:24:03.124Z,7.20
2017-08-27T09:26:30.614Z,6.73
2017-08-27T09:28:58.109Z,6.27
2017-08-27T09:31:25.624Z,6.00
2017-08-27T09:33:53.110Z,7.90
2017-08-27T09:36:20.609Z,7.83
2017-08-27T09:38:48.122Z,6.30
2017-08-27T09:41:15.607Z,6.67
2017-08-27T09:43:43.086Z,7.40
2017-08-27T09:46:10.587Z,7.30
2017-08-27T09:48:38.060Z,7.20
2017-08-27T09:51:05.538Z,6.27
2017-08-27T09:53:33.050Z,6.97
2017-08-27T09:56:00.535Z,6.87
2017-08-27T09:58:28.051Z,7.03
2017-08-27T10:00:55.554Z,7.07
2017-08-27T10:03:23.044Z,6.57
2017-08-27T10:05:50.528Z,6.40
2017-08-27T10:08:18.029Z,7.47
2017-08-27T10:10:45.510Z,7.33
2017-08-27T10:13:12.989Z,6.40
2017-08-27T10:15:40.509Z,7.10
2017-08-27T10:18:07.991Z,6.53
2017-08-27T10:20:35.478Z,6.07
2017-08-27T10:23:02.973Z,6.50
2017-08-27T10:25:30.455Z,6.90
2017-08-27T10:27:57.951Z,6.63
2017-08-27T10:30:25.476Z,8.37
2017-08-27T10:32:52.962Z,7.10
2017-08-27T10:35:20.460Z,6.60
2017-08-27T10:37:47.966Z,6.90
2017-08-27T10:40:15.436Z,6.63
2017-08-27T10:42:42.914Z,7.03
2017-08-27T10:45:10.435Z,6.30
2017-08-27T10:47:37.926Z,6.50
2017-08-27T10:50:05.416Z,6.10
2017-08-27T10:52:32.919Z,9.90
2017-08-27T10:55:00.397Z,6.40
2017-08-27T10:57:27.870Z,6.47
2017-08-27T10:59:55.385Z,7.27
2017-08-27T11:02:22.869Z,7.57
2017-08-27T11:04:50.363Z,6.50
2017-08-27T11:07:17.878Z,6.57
2017-08-27T11:09:45.353Z,6.43
2017-08-27T11:12:12.839Z,6.83
2017-08-27T11:14:40.370Z,6.70
2017-08-27T11:17:07.857Z,7.10
2017-08-27T11:19:35.335Z,6.83
2017-08-27T11:22:02.841Z,6.80
2017-08-27T11:24:30.318Z,6.33
2017-08-27T11:26:57.792Z,6.77
2017-08-27T11:29:25.304Z,6.90
2017-08-27T11:31:52.791Z,7.30
2017-08-27T11:34:20.268Z,6.23
2017-08-27T11:36:47.774Z,6.10
2017-08-27T11:39:15.257Z,8.47
2017-08-27T11:41:42.743Z,7.40
2017-08-27T11:44:10.251Z,6.40
2017-08-27T11:46:37.741Z,6.30
2017-08-27T11:49:05.235Z,5.73
2017-08-27T11:51:32.753Z,6.83
2017-08-27T11:54:00.239Z,6.80
2017-08-27T11:56:27.731Z,8.10
2017-08-27T11:58:55.246Z,7.20
2017-08-27T12:01:22.736Z,7.30
2017-08-27T12:03:50.224Z,7.70
2017-08-27T12:06:17.742Z,6.33
2017-08-27T12:08:45.229Z,6.40
2017-08-27T12:11:12.705Z,5.63
2017-08-27T12:13:40.220Z,6.57
2017-08-27T12:16:07.702Z,6.60
2017-08-27T12:18:35.199Z,7.67
2017-08-27T12:21:02.709Z,11.80
2017-08-27T12:23:30.185Z,6.27
2017-08-27T12:25:57.760Z,5.80
2017-08-27T12:28:25.593Z,6.20
2017-08-27T12:30:53.083Z,6.53
2017-08-27T12:33:20.570Z,6.57
2017-08-27T12:35:48.070Z,7.00
2017-08-27T12:38:15.567Z,7.47
2017-08-27T12:40:43.046Z,6.80
2017-08-27T12:43:10.555Z,6.23
2017-08-27T12:45:38.048Z,6.60
2017-08-27T12:48:05.539Z,7.40
2017-08-27T12:50:33.066Z,6.80
2017-08-27T12:53:00.543Z,5.97
2017-08-27T12:55:28.034Z,6.10
2017-08-27T12:57:55.560Z,7.30
2017-08-27T13:00:23.051Z,6.80
2017-08-27T13:02:50.538Z,7.27
2017-08-27T13:05:18.043Z,6.13
2017-08-27T13:07:45.538Z,6.10
2017-08-27T13:10:13.009Z,5.67
2017-08-27T13:12:40.523Z,6.30
2017-08-27T13:15:08.016Z,6.20
2017-08-27T13:17:36.544Z,5.70
2017-08-27T13:20:04.049Z,5.67
2017-08-27T13:22:31.558Z,6.13
2017-08-27T13:24:59.042Z,6.50
2017-08-27T13:27:26.673Z,6.90
2017-08-27T13:29:54.166Z,5.97
2017-08-27T13:32:21.650Z,5.90
2017-08-27T13:34:49.164Z,6.40
2017-08-27T13:37:16.646Z,5.60
2017-08-27T13:39:44.130Z,5.57
2017-08-27T13:42:11.643Z,6.60
2017-08-27T13:44:39.185Z,6.00
2017-08-27T13:47:06.677Z,6.03
2017-08-27T13:49:34.180Z,5.87
2017-08-27T13:52:01.665Z,6.20
2017-08-27T13:54:29.154Z,5.60
2017-08-27T13:56:56.666Z,5.73
2017-08-27T13:59:24.146Z,5.50
2017-08-27T14:01:51.631Z,5.63
2017-08-27T14:04:19.131Z,5.50
2017-08-27T14:06:46.620Z,6.13
2017-08-27T14:09:14.107Z,6.20
2017-08-27T14:11:41.616Z,5.80
2017-08-27T14:14:09.106Z,5.60
2017-08-27T14:16:37.214Z,6.07
2017-08-27T14:19:04.723Z,5.00
2017-08-27T14:21:32.205Z,6.50
2017-08-27T14:23:59.691Z,5.80
2017-08-27T14:26:27.200Z,6.10
2017-08-27T14:28:54.694Z,6.53
2017-08-27T14:31:22.182Z,6.43
2017-08-27T14:33:49.682Z,6.40
2017-08-27T14:36:17.167Z,6.00
2017-08-27T14:38:44.644Z,5.43
2017-08-27T14:41:12.155Z,6.40
2017-08-27T14:43:39.638Z,5.50
2017-08-27T14:46:07.120Z,5.90
2017-08-27T14:48:34.735Z,5.93
2017-08-27T14:51:02.286Z,5.87
2017-08-27T14:53:29.782Z,5.57
2017-08-27T14:55:57.298Z,6.47
2017-08-27T14:58:24.784Z,6.10
2017-08-27T15:00:52.279Z,6.13
2017-08-27T15:03:19.790Z,5.50
2017-08-27T15:05:47.275Z,5.83
2017-08-27T15:08:14.808Z,5.50
2017-08-27T15:10:42.321Z,5.30
2017-08-27T15:13:09.810Z,5.60
2017-08-27T15:15:37.363Z,6.00
2017-08-27T15:18:04.870Z,5.47
2017-08-27T15:20:32.407Z,6.67
2017-08-27T15:22:59.912Z,5.93
2017-08-27T15:25:27.411Z,6.30
2017-08-27T15:27:54.919Z,5.00
2017-08-27T15:30:22.396Z,6.67
2017-08-27T15:32:49.932Z,6.50
2017-08-27T15:35:17.437Z,5.40
2017-08-27T15:37:44.935Z,6.03
2017-08-27T15:40:12.455Z,5.17
2017-08-27T15:42:39.942Z,5.10
2017-08-27T15:45:07.425Z,5.20
2017-08-27T15:47:34.937Z,6.20
2017-08-27T15:50:02.423Z,5.80
2017-08-27T15:52:29.906Z,6.00
2017-08-27T15:54:57.431Z,6.20
2017-08-27T15:57:24.925Z,5.40
2017-08-27T15:59:52.419Z,6.07
2017-08-27T16:02:19.935Z,5.47
2017-08-27T16:04:47.421Z,5.90
2017-08-27T16:07:14.907Z,6.03
2017-08-27T16:09:42.437Z,5.97
2017-08-27T16:12:09.917Z,6.30
2017-08-27T16:14:37.484Z,5.43
2017-08-27T16:17:04.993Z,6.27
2017-08-27T16:19:32.531Z,6.37
2017-08-27T16:22:00.017Z,6.17
2017-08-27T16:24:27.525Z,5.77
2017-08-27T16:26:55.008Z,7.63
2017-08-27T16:29:22.493Z,11.23
2017-08-27T16:31:50.003Z,7.83
2017-08-27T16:34:17.485Z,6.57
2017-08-27T16:36:44.983Z,6.70
2017-08-27T16:39:12.486Z,5.90
2017-08-27T16:41:39.966Z,5.97
2017-08-27T16:44:07.448Z,6.03
2017-08-27T16:46:34.963Z,6.63
2017-08-27T16:49:02.447Z,5.40
2017-08-27T16:51:29.934Z,6.77
2017-08-27T16:53:57.445Z,5.43
2017-08-27T16:56:24.986Z,5.93
2017-08-27T16:58:52.477Z,5.87
2017-08-27T17:01:19.982Z,5.30
2017-08-27T17:03:47.458Z,7.77
2017-08-27T17:06:14.937Z,6.90
2017-08-27T17:08:42.447Z,6.70
2017-08-27T17:11:09.931Z,7.40
2017-08-27T17:13:37.430Z,9.33
2017-08-27T17:16:04.952Z,6.00
2017-08-27T17:18:32.451Z,8.00
2017-08-27T17:20:59.946Z,7.43
2017-08-27T17:23:27.464Z,6.93
2017-08-27T17:25:54.940Z,6.10
2017-08-27T17:28:22.443Z,8.53
2017-08-27T17:30:49.949Z,5.93
2017-08-27T17:33:17.423Z,6.90
2017-08-27T17:35:44.923Z,6.20
2017-08-27T17:38:12.437Z,6.07
2017-08-27T17:40:39.928Z,6.47
2017-08-27T17:43:07.424Z,5.63
2017-08-27T17:45:34.939Z,5.90
2017-08-27T17:48:02.427Z,7.43
2017-08-27T17:50:29.915Z,6.30
2017-08-27T17:52:57.427Z,5.90
2017-08-27T17:55:24.909Z,6.57
2017-08-27T17:57:52.383Z,5.83
2017-08-27T18:00:20.662Z,7.23
2017-08-27T18:02:48.137Z,6.70
2017-08-27T18:05:15.628Z,8.47
2017-08-27T18:07:43.145Z,7.10
2017-08-27T18:10:10.640Z,7.00
2017-08-27T18:12:38.117Z,6.93
2017-08-27T18:15:05.616Z,6.13
2017-08-27T18:17:33.110Z,9.07
2017-08-27T18:20:00.594Z,8.17
2017-08-27T18:22:28.099Z,6.07
2017-08-27T18:24:55.606Z,9.10
2017-08-27T18:27:23.106Z,7.17
2017-08-27T18:29:50.630Z,7.73
2017-08-27T18:32:18.105Z,7.20
2017-08-27T18:34:45.580Z,6.80
2017-08-27T18:37:13.093Z,7.80
2017-08-27T18:39:40.595Z,7.20
2017-08-27T18:42:08.078Z,7.87
2017-08-27T18:44:35.597Z,6.87
2017-08-27T18:47:03.093Z,7.53
2017-08-27T18:49:30.591Z,8.40
2017-08-27T18:51:58.102Z,8.43
2017-08-27T18:54:25.612Z,7.47
2017-08-27T18:56:53.096Z,8.80
2017-08-27T18:59:20.605Z,7.80
2017-08-27T19:01:48.084Z,8.07
2017-08-27T19:04:15.562Z,7.60
2017-08-27T19:06:43.076Z,8.80
2017-08-27T19:09:10.559Z,8.10
2017-08-27T19:11:38.040Z,7.43
2017-08-27T19:14:05.549Z,7.47
2017-08-27T19:16:33.046Z,8.20
2017-08-27T19:19:00.525Z,8.37
2017-08-27T19:21:28.062Z,8.17
2017-08-27T19:23:55.578Z,9.90
2017-08-27T19:26:23.148Z,10.47
2017-08-27T19:28:50.678Z,9.20
2017-08-27T19:31:18.171Z,8.80
2017-08-27T19:33:45.664Z,10.40
2017-08-27T19:36:13.182Z,9.00
2017-08-27T19:38:40.693Z,8.20
2017-08-27T19:41:08.187Z,8.70
2017-08-27T19:43:35.697Z,8.07
2017-08-27T19:46:03.180Z,7.53
2017-08-27T19:48:30.704Z,7.80
2017-08-27T19:50:58.253Z,7.33
2017-08-27T19:53:25.760Z,7.70
2017-08-27T19:55:53.256Z,7.50
2017-08-27T19:58:20.774Z,8.27
2017-08-27T20:00:48.261Z,8.77
2017-08-27T20:03:15.769Z,6.63
2017-08-27T20:05:43.289Z,8.10
2017-08-27T20:08:10.792Z,6.90
2017-08-27T20:10:38.274Z,7.80
2017-08-27T20:13:05.802Z,8.40
2017-08-27T20:15:33.281Z,8.10
2017-08-27T20:18:00.790Z,7.37
2017-08-27T20:20:28.308Z,7.20
2017-08-27T20:22:55.805Z,7.70
2017-08-27T20:25:23.286Z,7.20
2017-08-27T20:27:50.795Z,6.90
2017-08-27T20:30:18.328Z,8.00
2017-08-27T20:32:45.822Z,7.13
2017-08-27T20:35:13.339Z,7.80
2017-08-27T20:37:40.817Z,7.90
2017-08-27T20:40:08.337Z,8.03
2017-08-27T20:42:35.846Z,7.90
2017-08-27T20:45:03.337Z,7.20
2017-08-27T20:47:30.826Z,8.00
2017-08-27T20:49:58.333Z,8.10
2017-08-27T20:52:25.821Z,7.27
2017-08-27T20:54:53.310Z,7.17
2017-08-27T20:57:20.818Z,8.00
2017-08-27T20:59:48.297Z,7.33
2017-08-27T21:02:15.790Z,6.83
2017-08-27T21:04:43.311Z,8.40
2017-08-27T21:07:10.798Z,8.03
2017-08-27T21:09:38.282Z,6.50
2017-08-27T21:12:05.798Z,7.80
2017-08-27T21:14:33.318Z,6.73
2017-08-27T21:17:00.793Z,8.60
2017-08-27T21:19:28.329Z,8.57
2017-08-27T21:21:55.842Z,7.53
2017-08-27T21:24:23.328Z,7.77
2017-08-27T21:26:50.836Z,7.37
2017-08-27T21:29:18.319Z,7.07
2017-08-27T21:31:45.806Z,7.10
2017-08-27T21:34:13.320Z,7.00
2017-08-27T21:36:40.818Z,6.60
2017-08-27T21:39:08.312Z,8.57
2017-08-27T21:41:35.831Z,7.50
2017-08-27T21:44:03.332Z,6.47
2017-08-27T21:46:30.822Z,6.30
2017-08-27T21:48:58.341Z,6.23
2017-08-27T21:51:25.832Z,6.30
2017-08-27T21:53:53.340Z,6.77
2017-08-27T21:56:20.859Z,7.60
2017-08-27T21:58:48.332Z,7.20
2017-08-27T22:01:15.823Z,6.57
2017-08-27T22:03:43.340Z,7.23
2017-08-27T22:06:10.822Z,7.33
2017-08-27T22:08:38.313Z,7.60
2017-08-27T22:11:05.832Z,6.87
2017-08-27T22:13:33.314Z,6.10
2017-08-27T22:16:00.795Z,7.40
2017-08-27T22:18:28.311Z,6.70
2017-08-27T22:20:55.802Z,7.30
2017-08-27T22:23:23.277Z,6.43
2017-08-27T22:25:50.782Z,5.97
2017-08-27T22:28:18.271Z,6.97
2017-08-27T22:30:45.756Z,7.37
2017-08-27T22:33:13.266Z,6.53
2017-08-27T22:35:40.751Z,6.23
2017-08-27T22:38:08.230Z,6.47
2017-08-27T22:40:35.732Z,6.57
2017-08-27T22:43:03.220Z,7.03
2017-08-27T22:45:30.700Z,7.77
2017-08-27T22:47:58.210Z,7.93
2017-08-27T22:50:25.700Z,6.73
2017-08-27T22:52:53.191Z,7.57
2017-08-27T22:55:20.711Z,7.37
2017-08-27T22:57:48.206Z,6.77
2017-08-27T23:00:15.695Z,6.67
2017-08-27T23:02:43.205Z,5.83
2017-08-27T23:05:10.679Z,5.63
2017-08-27T23:07:38.181Z,6.50
2017-08-27T23:10:05.694Z,6.90
2017-08-27T23:12:33.178Z,6.13
2017-08-27T23:15:00.654Z,6.53
2017-08-27T23:17:28.157Z,6.57
2017-08-27T23:19:55.643Z,6.37
2017-08-27T23:22:23.126Z,6.67
2017-08-27T23:24:50.638Z,5.90
2017-08-27T23:27:18.104Z,6.07
2017-08-27T23:29:45.588Z,6.43
2017-08-27T23:32:13.091Z,5.20
2017-08-27T23:34:40.584Z,6.10
2017-08-27T23:37:08.078Z,5.80
2017-08-27T23:39:35.644Z,6.70
2017-08-27T23:42:03.141Z,6.73
2017-08-27T23:44:30.635Z,6.20
2017-08-27T23:46:58.140Z,6.30
2017-08-27T23:49:25.677Z,6.20
2017-08-27T23:51:53.162Z,7.37
2017-08-27T23:54:20.662Z,6.57
2017-08-27T23:56:48.138Z,7.00
2017-08-27T23:59:15.616Z,6.50
